sensor_id;sensor_type;location;lat;lon;timestamp;temperature;humidity
52267;DHT22;38223;50.940;4.034;2023-08-20T00:02:01;21.80;99.90
52267;DHT22;38223;50.940;4.034;2023-08-20T00:04:33;21.60;99.90
52267;DHT22;38223;50.940;4.034;2023-08-20T00:07:07;21.60;99.90
52267;DHT22;38223;50.940;4.034;2023-08-20T00:09:39;21.70;99.90
52267;DHT22;38223;50.940;4.034;2023-08-20T00:12:11;22.10;99.90
52267;DHT22;38223;50.940;4.034;2023-08-20T00:14:58;22.10;99.90
52267;DHT22;38223;50.940;4.034;2023-08-20T00:17:34;22.10;99.90
52267;DHT22;38223;50.940;4.034;2023-08-20T00:20:07;22.00;99.90
52267;DHT22;38223;50.940;4.034;2023-08-20T00:22:38;22.10;99.90
52267;DHT22;38223;50.940;4.034;2023-08-20T00:25:12;22.20;99.90
52267;DHT22;38223;50.940;4.034;2023-08-20T00:27:43;22.00;99.90
52267;DHT22;38223;50.940;4.034;2023-08-20T00:30:22;21.90;99.90
52267;DHT22;38223;50.940;4.034;2023-08-20T00:32:51;22.20;99.90
52267;DHT22;38223;50.940;4.034;2023-08-20T00:35:24;22.10;99.90
52267;DHT22;38223;50.940;4.034;2023-08-20T00:37:53;21.90;99.90
52267;DHT22;38223;50.940;4.034;2023-08-20T00:40:31;22.10;99.90
52267;DHT22;38223;50.940;4.034;2023-08-20T00:43:05;22.20;99.90
52267;DHT22;38223;50.940;4.034;2023-08-20T00:45:39;22.00;99.90
52267;DHT22;38223;50.940;4.034;2023-08-20T00:48:11;21.80;99.90
52267;DHT22;38223;50.940;4.034;2023-08-20T00:50:46;21.90;99.90
52267;DHT22;38223;50.940;4.034;2023-08-20T00:53:16;22.00;99.90
52267;DHT22;38223;50.940;4.034;2023-08-20T00:55:50;21.80;99.90
52267;DHT22;38223;50.940;4.034;2023-08-20T00:58:20;21.60;99.90
52267;DHT22;38223;50.940;4.034;2023-08-20T01:00:56;21.50;99.90
52267;DHT22;38223;50.940;4.034;2023-08-20T01:03:25;21.80;99.90
52267;DHT22;38223;50.940;4.034;2023-08-20T01:05:58;21.90;99.90
52267;DHT22;38223;50.940;4.034;2023-08-20T01:08:36;21.80;99.90
52267;DHT22;38223;50.940;4.034;2023-08-20T01:11:10;22.00;99.90
52267;DHT22;38223;50.940;4.034;2023-08-20T01:13:39;22.20;99.90
52267;DHT22;38223;50.940;4.034;2023-08-20T01:16:17;22.40;99.90
52267;DHT22;38223;50.940;4.034;2023-08-20T01:18:47;22.40;99.90
52267;DHT22;38223;50.940;4.034;2023-08-20T01:23:58;22.30;99.90
52267;DHT22;38223;50.940;4.034;2023-08-20T01:26:45;22.20;99.90
52267;DHT22;38223;50.940;4.034;2023-08-20T01:29:11;22.00;99.90
52267;DHT22;38223;50.940;4.034;2023-08-20T01:31:46;21.90;99.90
52267;DHT22;38223;50.940;4.034;2023-08-20T01:34:16;21.80;99.90
52267;DHT22;38223;50.940;4.034;2023-08-20T01:36:53;21.90;99.90
52267;DHT22;38223;50.940;4.034;2023-08-20T01:39:21;21.90;99.90
52267;DHT22;38223;50.940;4.034;2023-08-20T01:41:55;21.70;99.90
52267;DHT22;38223;50.940;4.034;2023-08-20T01:44:25;22.00;99.90
52267;DHT22;38223;50.940;4.034;2023-08-20T01:46:58;22.10;99.90
52267;DHT22;38223;50.940;4.034;2023-08-20T01:49:28;22.10;99.90
52267;DHT22;38223;50.940;4.034;2023-08-20T01:52:03;22.20;99.90
52267;DHT22;38223;50.940;4.034;2023-08-20T01:54:31;22.10;99.90
52267;DHT22;38223;50.940;4.034;2023-08-20T01:57:04;21.90;99.90
52267;DHT22;38223;50.940;4.034;2023-08-20T01:59:31;22.00;99.90
52267;DHT22;38223;50.940;4.034;2023-08-20T02:02:03;22.10;99.90
52267;DHT22;38223;50.940;4.034;2023-08-20T02:04:39;22.20;99.90
52267;DHT22;38223;50.940;4.034;2023-08-20T02:07:08;22.10;99.90
52267;DHT22;38223;50.940;4.034;2023-08-20T02:09:43;22.10;99.90
52267;DHT22;38223;50.940;4.034;2023-08-20T02:12:10;22.00;99.90
52267;DHT22;38223;50.940;4.034;2023-08-20T02:14:46;21.90;99.90
52267;DHT22;38223;50.940;4.034;2023-08-20T02:17:16;21.70;99.90
52267;DHT22;38223;50.940;4.034;2023-08-20T02:19:51;21.50;99.90
52267;DHT22;38223;50.940;4.034;2023-08-20T02:22:20;21.60;99.90
52267;DHT22;38223;50.940;4.034;2023-08-20T02:24:53;21.70;99.90
52267;DHT22;38223;50.940;4.034;2023-08-20T02:27:25;21.90;99.90
52267;DHT22;38223;50.940;4.034;2023-08-20T02:29:55;21.80;99.90
52267;DHT22;38223;50.940;4.034;2023-08-20T02:32:25;21.70;99.90
52267;DHT22;38223;50.940;4.034;2023-08-20T02:35:00;21.60;99.90
52267;DHT22;38223;50.940;4.034;2023-08-20T02:37:27;21.50;99.90
52267;DHT22;38223;50.940;4.034;2023-08-20T02:40:02;21.30;99.90
52267;DHT22;38223;50.940;4.034;2023-08-20T02:42:31;21.10;99.90
52267;DHT22;38223;50.940;4.034;2023-08-20T02:45:06;21.10;99.90
52267;DHT22;38223;50.940;4.034;2023-08-20T02:47:35;21.10;99.90
52267;DHT22;38223;50.940;4.034;2023-08-20T02:50:10;21.20;99.90
52267;DHT22;38223;50.940;4.034;2023-08-20T02:52:44;21.20;99.90
52267;DHT22;38223;50.940;4.034;2023-08-20T02:55:14;21.20;99.90
52267;DHT22;38223;50.940;4.034;2023-08-20T02:57:44;21.20;99.90
52267;DHT22;38223;50.940;4.034;2023-08-20T03:00:20;21.10;99.90
52267;DHT22;38223;50.940;4.034;2023-08-20T03:02:49;21.10;99.90
52267;DHT22;38223;50.940;4.034;2023-08-20T03:05:19;20.90;99.90
52267;DHT22;38223;50.940;4.034;2023-08-20T03:07:49;20.90;99.90
52267;DHT22;38223;50.940;4.034;2023-08-20T03:10:24;20.90;99.90
52267;DHT22;38223;50.940;4.034;2023-08-20T03:12:53;20.90;99.90
52267;DHT22;38223;50.940;4.034;2023-08-20T03:15:22;21.10;99.90
52267;DHT22;38223;50.940;4.034;2023-08-20T03:17:54;21.20;99.90
52267;DHT22;38223;50.940;4.034;2023-08-20T03:20:31;21.10;99.90
52267;DHT22;38223;50.940;4.034;2023-08-20T03:22:59;21.10;99.90
52267;DHT22;38223;50.940;4.034;2023-08-20T03:25:29;20.90;99.90
52267;DHT22;38223;50.940;4.034;2023-08-20T03:28:00;20.80;99.90
52267;DHT22;38223;50.940;4.034;2023-08-20T03:30:34;21.00;99.90
52267;DHT22;38223;50.940;4.034;2023-08-20T03:33:02;21.00;99.90
52267;DHT22;38223;50.940;4.034;2023-08-20T03:35:33;21.20;99.90
52267;DHT22;38223;50.940;4.034;2023-08-20T03:38:05;21.10;99.90
52267;DHT22;38223;50.940;4.034;2023-08-20T03:40:38;21.00;99.90
52267;DHT22;38223;50.940;4.034;2023-08-20T03:43:07;21.10;99.90
52267;DHT22;38223;50.940;4.034;2023-08-20T03:45:37;20.90;99.90
52267;DHT22;38223;50.940;4.034;2023-08-20T03:48:09;21.10;99.90
52267;DHT22;38223;50.940;4.034;2023-08-20T03:50:41;21.10;99.90
52267;DHT22;38223;50.940;4.034;2023-08-20T03:53:18;21.10;99.90
52267;DHT22;38223;50.940;4.034;2023-08-20T03:55:53;21.00;99.90
52267;DHT22;38223;50.940;4.034;2023-08-20T03:58:23;20.80;99.90
52267;DHT22;38223;50.940;4.034;2023-08-20T04:00:56;20.70;99.90
52267;DHT22;38223;50.940;4.034;2023-08-20T04:03:28;20.80;99.90
52267;DHT22;38223;50.940;4.034;2023-08-20T04:05:59;20.90;99.90
52267;DHT22;38223;50.940;4.034;2023-08-20T04:08:32;20.70;99.90
52267;DHT22;38223;50.940;4.034;2023-08-20T04:11:00;20.60;99.90
52267;DHT22;38223;50.940;4.034;2023-08-20T04:13:32;20.50;99.90
52267;DHT22;38223;50.940;4.034;2023-08-20T04:16:04;20.50;99.90
52267;DHT22;38223;50.940;4.034;2023-08-20T04:18:35;20.50;99.90
52267;DHT22;38223;50.940;4.034;2023-08-20T04:21:06;20.50;99.90
52267;DHT22;38223;50.940;4.034;2023-08-20T04:23:40;20.50;99.90
52267;DHT22;38223;50.940;4.034;2023-08-20T04:26:09;20.50;99.90
52267;DHT22;38223;50.940;4.034;2023-08-20T04:28:41;20.50;99.90
52267;DHT22;38223;50.940;4.034;2023-08-20T04:31:12;20.50;99.90
52267;DHT22;38223;50.940;4.034;2023-08-20T04:33:47;20.50;99.90
52267;DHT22;38223;50.940;4.034;2023-08-20T04:36:21;20.60;99.90
52267;DHT22;38223;50.940;4.034;2023-08-20T04:38:49;20.80;99.90
52267;DHT22;38223;50.940;4.034;2023-08-20T04:41:23;21.00;99.90
52267;DHT22;38223;50.940;4.034;2023-08-20T04:43:53;21.20;99.90
52267;DHT22;38223;50.940;4.034;2023-08-20T04:46:22;21.30;99.90
52267;DHT22;38223;50.940;4.034;2023-08-20T04:48:54;21.30;99.90
52267;DHT22;38223;50.940;4.034;2023-08-20T04:51:27;21.20;99.90
52267;DHT22;38223;50.940;4.034;2023-08-20T04:53:59;21.00;99.90
52267;DHT22;38223;50.940;4.034;2023-08-20T04:56:33;20.60;99.90
52267;DHT22;38223;50.940;4.034;2023-08-20T04:59:03;20.40;99.90
52267;DHT22;38223;50.940;4.034;2023-08-20T05:01:37;20.20;99.90
52267;DHT22;38223;50.940;4.034;2023-08-20T05:04:06;20.20;99.90
52267;DHT22;38223;50.940;4.034;2023-08-20T05:06:41;20.40;99.90
52267;DHT22;38223;50.940;4.034;2023-08-20T05:09:09;20.60;99.90
52267;DHT22;38223;50.940;4.034;2023-08-20T05:11:39;20.70;99.90
52267;DHT22;38223;50.940;4.034;2023-08-20T05:14:14;20.80;99.90
52267;DHT22;38223;50.940;4.034;2023-08-20T05:16:51;20.70;99.90
52267;DHT22;38223;50.940;4.034;2023-08-20T05:19:24;20.50;99.90
52267;DHT22;38223;50.940;4.034;2023-08-20T05:22:00;20.20;99.90
52267;DHT22;38223;50.940;4.034;2023-08-20T05:24:35;20.30;99.90
52267;DHT22;38223;50.940;4.034;2023-08-20T05:27:11;20.20;99.90
52267;DHT22;38223;50.940;4.034;2023-08-20T05:29:40;20.10;99.90
52267;DHT22;38223;50.940;4.034;2023-08-20T05:32:12;20.00;99.90
52267;DHT22;38223;50.940;4.034;2023-08-20T05:34:49;20.00;99.90
52267;DHT22;38223;50.940;4.034;2023-08-20T05:37:16;20.00;99.90
52267;DHT22;38223;50.940;4.034;2023-08-20T05:39:49;20.00;99.90
52267;DHT22;38223;50.940;4.034;2023-08-20T05:42:19;20.10;99.90
52267;DHT22;38223;50.940;4.034;2023-08-20T05:44:53;20.40;99.90
52267;DHT22;38223;50.940;4.034;2023-08-20T05:47:21;20.70;99.90
52267;DHT22;38223;50.940;4.034;2023-08-20T05:49:52;20.70;99.90
52267;DHT22;38223;50.940;4.034;2023-08-20T05:52:24;20.60;99.90
52267;DHT22;38223;50.940;4.034;2023-08-20T05:54:55;20.70;99.90
52267;DHT22;38223;50.940;4.034;2023-08-20T05:57:26;20.90;99.90
52267;DHT22;38223;50.940;4.034;2023-08-20T05:59:57;20.70;99.90
52267;DHT22;38223;50.940;4.034;2023-08-20T06:02:27;20.50;99.90
52267;DHT22;38223;50.940;4.034;2023-08-20T06:04:57;20.30;99.90
52267;DHT22;38223;50.940;4.034;2023-08-20T06:07:29;20.30;99.90
52267;DHT22;38223;50.940;4.034;2023-08-20T06:10:01;20.30;99.90
52267;DHT22;38223;50.940;4.034;2023-08-20T06:12:35;20.30;99.90
52267;DHT22;38223;50.940;4.034;2023-08-20T06:15:07;20.40;99.90
52267;DHT22;38223;50.940;4.034;2023-08-20T06:17:36;20.50;99.90
52267;DHT22;38223;50.940;4.034;2023-08-20T06:20:06;20.60;99.90
52267;DHT22;38223;50.940;4.034;2023-08-20T06:22:36;20.60;99.90
52267;DHT22;38223;50.940;4.034;2023-08-20T06:25:08;20.80;99.90
52267;DHT22;38223;50.940;4.034;2023-08-20T06:27:38;21.10;99.90
52267;DHT22;38223;50.940;4.034;2023-08-20T06:30:09;21.20;99.90
52267;DHT22;38223;50.940;4.034;2023-08-20T06:32:41;21.10;99.90
52267;DHT22;38223;50.940;4.034;2023-08-20T06:35:14;21.10;99.90
52267;DHT22;38223;50.940;4.034;2023-08-20T06:37:46;21.50;99.90
52267;DHT22;38223;50.940;4.034;2023-08-20T06:40:18;21.40;99.90
52267;DHT22;38223;50.940;4.034;2023-08-20T06:42:48;21.30;99.90
52267;DHT22;38223;50.940;4.034;2023-08-20T06:45:25;21.30;99.90
52267;DHT22;38223;50.940;4.034;2023-08-20T06:47:56;21.30;99.90
52267;DHT22;38223;50.940;4.034;2023-08-20T06:50:29;21.60;99.90
52267;DHT22;38223;50.940;4.034;2023-08-20T06:52:58;22.00;99.90
52267;DHT22;38223;50.940;4.034;2023-08-20T06:55:32;22.00;99.90
52267;DHT22;38223;50.940;4.034;2023-08-20T06:58:00;21.90;99.90
52267;DHT22;38223;50.940;4.034;2023-08-20T07:00:34;21.60;99.90
52267;DHT22;38223;50.940;4.034;2023-08-20T07:03:03;21.60;99.90
52267;DHT22;38223;50.940;4.034;2023-08-20T07:05:39;21.90;99.90
52267;DHT22;38223;50.940;4.034;2023-08-20T07:08:33;22.10;99.90
52267;DHT22;38223;50.940;4.034;2023-08-20T07:11:05;22.00;99.90
52267;DHT22;38223;50.940;4.034;2023-08-20T07:13:37;22.10;99.90
52267;DHT22;38223;50.940;4.034;2023-08-20T07:16:11;22.10;99.90
52267;DHT22;38223;50.940;4.034;2023-08-20T07:18:44;22.00;99.90
52267;DHT22;38223;50.940;4.034;2023-08-20T07:21:19;22.00;99.90
52267;DHT22;38223;50.940;4.034;2023-08-20T07:23:52;22.20;99.90
52267;DHT22;38223;50.940;4.034;2023-08-20T07:26:22;22.30;99.90
52267;DHT22;38223;50.940;4.034;2023-08-20T07:28:51;22.20;99.90
52267;DHT22;38223;50.940;4.034;2023-08-20T07:31:32;22.20;99.90
52267;DHT22;38223;50.940;4.034;2023-08-20T07:34:04;22.10;99.90
52267;DHT22;38223;50.940;4.034;2023-08-20T07:36:38;22.00;99.90
52267;DHT22;38223;50.940;4.034;2023-08-20T07:39:08;21.90;99.90
52267;DHT22;38223;50.940;4.034;2023-08-20T07:41:44;22.10;99.90
52267;DHT22;38223;50.940;4.034;2023-08-20T07:44:14;22.20;99.90
52267;DHT22;38223;50.940;4.034;2023-08-20T07:46:45;22.20;99.90
52267;DHT22;38223;50.940;4.034;2023-08-20T07:49:14;22.30;99.90
52267;DHT22;38223;50.940;4.034;2023-08-20T07:51:43;22.50;99.90
52267;DHT22;38223;50.940;4.034;2023-08-20T07:54:13;22.60;99.90
52267;DHT22;38223;50.940;4.034;2023-08-20T07:56:45;22.70;99.90
52267;DHT22;38223;50.940;4.034;2023-08-20T07:59:17;22.80;99.90
52267;DHT22;38223;50.940;4.034;2023-08-20T08:01:51;22.90;99.90
52267;DHT22;38223;50.940;4.034;2023-08-20T08:04:21;22.60;99.90
52267;DHT22;38223;50.940;4.034;2023-08-20T08:06:54;22.20;99.90
52267;DHT22;38223;50.940;4.034;2023-08-20T08:09:28;22.20;99.90
52267;DHT22;38223;50.940;4.034;2023-08-20T08:12:02;22.70;99.90
52267;DHT22;38223;50.940;4.034;2023-08-20T08:14:33;22.70;99.90
52267;DHT22;38223;50.940;4.034;2023-08-20T08:17:03;22.70;99.90
52267;DHT22;38223;50.940;4.034;2023-08-20T08:19:34;22.50;99.90
52267;DHT22;38223;50.940;4.034;2023-08-20T08:22:08;22.60;99.90
52267;DHT22;38223;50.940;4.034;2023-08-20T08:24:41;22.90;99.90
52267;DHT22;38223;50.940;4.034;2023-08-20T08:27:10;22.80;99.90
52267;DHT22;38223;50.940;4.034;2023-08-20T08:29:42;22.60;99.90
52267;DHT22;38223;50.940;4.034;2023-08-20T08:32:14;22.50;99.90
52267;DHT22;38223;50.940;4.034;2023-08-20T08:34:44;22.40;99.90
52267;DHT22;38223;50.940;4.034;2023-08-20T08:37:14;22.50;99.90
52267;DHT22;38223;50.940;4.034;2023-08-20T08:39:50;22.60;99.90
52267;DHT22;38223;50.940;4.034;2023-08-20T08:42:21;23.10;99.90
52267;DHT22;38223;50.940;4.034;2023-08-20T08:44:54;23.40;99.90
52267;DHT22;38223;50.940;4.034;2023-08-20T08:47:27;23.50;99.90
52267;DHT22;38223;50.940;4.034;2023-08-20T08:50:02;23.50;99.90
52267;DHT22;38223;50.940;4.034;2023-08-20T08:52:35;23.40;99.90
52267;DHT22;38223;50.940;4.034;2023-08-20T08:55:08;23.40;99.90
52267;DHT22;38223;50.940;4.034;2023-08-20T08:57:39;23.50;99.90
52267;DHT22;38223;50.940;4.034;2023-08-20T09:00:11;23.40;99.90
52267;DHT22;38223;50.940;4.034;2023-08-20T09:02:40;23.20;99.90
52267;DHT22;38223;50.940;4.034;2023-08-20T09:05:16;23.30;99.90
52267;DHT22;38223;50.940;4.034;2023-08-20T09:07:57;23.50;99.90
52267;DHT22;38223;50.940;4.034;2023-08-20T09:10:30;23.40;99.90
52267;DHT22;38223;50.940;4.034;2023-08-20T09:13:00;23.30;99.90
52267;DHT22;38223;50.940;4.034;2023-08-20T09:15:33;23.40;99.90
52267;DHT22;38223;50.940;4.034;2023-08-20T09:20:54;23.90;99.90
52267;DHT22;38223;50.940;4.034;2023-08-20T09:23:28;23.90;99.90
52267;DHT22;38223;50.940;4.034;2023-08-20T09:26:06;23.90;99.90
52267;DHT22;38223;50.940;4.034;2023-08-20T09:28:45;23.60;99.90
52267;DHT22;38223;50.940;4.034;2023-08-20T09:31:16;23.50;99.90
52267;DHT22;38223;50.940;4.034;2023-08-20T09:33:54;23.60;99.90
52267;DHT22;38223;50.940;4.034;2023-08-20T09:36:34;23.80;99.90
52267;DHT22;38223;50.940;4.034;2023-08-20T09:39:08;23.90;99.90
52267;DHT22;38223;50.940;4.034;2023-08-20T09:41:38;24.00;99.90
52267;DHT22;38223;50.940;4.034;2023-08-20T09:44:06;24.10;99.90
52267;DHT22;38223;50.940;4.034;2023-08-20T09:46:57;24.30;99.90
52267;DHT22;38223;50.940;4.034;2023-08-20T09:49:28;24.30;99.90
52267;DHT22;38223;50.940;4.034;2023-08-20T09:52:03;23.80;99.90
52267;DHT22;38223;50.940;4.034;2023-08-20T09:54:40;23.50;99.90
52267;DHT22;38223;50.940;4.034;2023-08-20T09:57:10;23.60;99.90
52267;DHT22;38223;50.940;4.034;2023-08-20T09:59:40;23.80;99.90
52267;DHT22;38223;50.940;4.034;2023-08-20T10:02:17;23.80;99.90
52267;DHT22;38223;50.940;4.034;2023-08-20T10:04:47;23.90;99.90
52267;DHT22;38223;50.940;4.034;2023-08-20T10:07:19;23.90;99.90
52267;DHT22;38223;50.940;4.034;2023-08-20T10:09:52;24.10;99.90
52267;DHT22;38223;50.940;4.034;2023-08-20T10:12:22;24.60;99.90
52267;DHT22;38223;50.940;4.034;2023-08-20T10:14:56;24.70;99.90
52267;DHT22;38223;50.940;4.034;2023-08-20T10:17:31;24.80;99.90
52267;DHT22;38223;50.940;4.034;2023-08-20T10:20:06;24.70;99.90
52267;DHT22;38223;50.940;4.034;2023-08-20T10:22:41;24.70;99.90
52267;DHT22;38223;50.940;4.034;2023-08-20T10:25:22;24.60;99.90
52267;DHT22;38223;50.940;4.034;2023-08-20T10:28:29;24.80;99.90
52267;DHT22;38223;50.940;4.034;2023-08-20T10:30:34;24.70;99.90
52267;DHT22;38223;50.940;4.034;2023-08-20T10:33:05;24.60;99.90
52267;DHT22;38223;50.940;4.034;2023-08-20T10:38:16;24.60;99.90
52267;DHT22;38223;50.940;4.034;2023-08-20T10:40:59;24.70;99.90
52267;DHT22;38223;50.940;4.034;2023-08-20T10:43:33;24.70;99.90
52267;DHT22;38223;50.940;4.034;2023-08-20T10:46:21;24.70;99.90
52267;DHT22;38223;50.940;4.034;2023-08-20T10:48:55;24.60;99.90
52267;DHT22;38223;50.940;4.034;2023-08-20T10:51:38;24.60;99.90
52267;DHT22;38223;50.940;4.034;2023-08-20T10:54:09;24.60;99.90
52267;DHT22;38223;50.940;4.034;2023-08-20T10:56:55;24.70;99.90
52267;DHT22;38223;50.940;4.034;2023-08-20T10:59:32;24.60;99.90
52267;DHT22;38223;50.940;4.034;2023-08-20T11:02:02;24.50;99.90
52267;DHT22;38223;50.940;4.034;2023-08-20T11:04:36;24.50;99.90
52267;DHT22;38223;50.940;4.034;2023-08-20T11:07:06;24.40;99.90
52267;DHT22;38223;50.940;4.034;2023-08-20T11:09:39;24.30;99.90
52267;DHT22;38223;50.940;4.034;2023-08-20T11:12:16;24.40;99.90
52267;DHT22;38223;50.940;4.034;2023-08-20T11:14:44;24.50;99.90
52267;DHT22;38223;50.940;4.034;2023-08-20T11:17:14;24.60;99.90
52267;DHT22;38223;50.940;4.034;2023-08-20T11:19:46;24.60;99.90
52267;DHT22;38223;50.940;4.034;2023-08-20T11:22:21;24.80;99.90
52267;DHT22;38223;50.940;4.034;2023-08-20T11:24:55;25.00;99.90
52267;DHT22;38223;50.940;4.034;2023-08-20T11:27:27;25.40;99.90
52267;DHT22;38223;50.940;4.034;2023-08-20T11:29:59;25.30;99.90
52267;DHT22;38223;50.940;4.034;2023-08-20T11:32:31;25.20;99.90
52267;DHT22;38223;50.940;4.034;2023-08-20T11:35:03;25.20;99.90
52267;DHT22;38223;50.940;4.034;2023-08-20T11:37:35;25.30;99.90
52267;DHT22;38223;50.940;4.034;2023-08-20T11:40:09;25.30;99.90
52267;DHT22;38223;50.940;4.034;2023-08-20T11:42:46;25.30;99.90
52267;DHT22;38223;50.940;4.034;2023-08-20T11:45:16;25.30;99.90
52267;DHT22;38223;50.940;4.034;2023-08-20T11:47:47;25.40;99.90
52267;DHT22;38223;50.940;4.034;2023-08-20T11:50:20;25.50;99.90
52267;DHT22;38223;50.940;4.034;2023-08-20T11:52:53;25.60;99.90
52267;DHT22;38223;50.940;4.034;2023-08-20T11:55:29;25.80;99.90
52267;DHT22;38223;50.940;4.034;2023-08-20T11:58:01;26.10;99.90
52267;DHT22;38223;50.940;4.034;2023-08-20T12:00:32;26.30;99.90
52267;DHT22;38223;50.940;4.034;2023-08-20T12:03:02;26.70;99.90
52267;DHT22;38223;50.940;4.034;2023-08-20T12:05:40;26.90;99.90
52267;DHT22;38223;50.940;4.034;2023-08-20T12:08:16;26.90;99.90
52267;DHT22;38223;50.940;4.034;2023-08-20T12:10:45;26.90;99.90
52267;DHT22;38223;50.940;4.034;2023-08-20T12:13:17;26.90;99.90
52267;DHT22;38223;50.940;4.034;2023-08-20T12:15:48;26.90;99.90
52267;DHT22;38223;50.940;4.034;2023-08-20T12:18:25;27.00;99.90
52267;DHT22;38223;50.940;4.034;2023-08-20T12:20:59;27.20;99.90
52267;DHT22;38223;50.940;4.034;2023-08-20T12:23:31;27.00;99.90
52267;DHT22;38223;50.940;4.034;2023-08-20T12:26:01;26.60;99.90
52267;DHT22;38223;50.940;4.034;2023-08-20T12:28:32;26.20;99.90
52267;DHT22;38223;50.940;4.034;2023-08-20T12:31:05;26.10;99.90
52267;DHT22;38223;50.940;4.034;2023-08-20T12:33:39;26.20;99.90
52267;DHT22;38223;50.940;4.034;2023-08-20T12:36:08;26.20;99.90
52267;DHT22;38223;50.940;4.034;2023-08-20T12:38:43;26.30;99.90
52267;DHT22;38223;50.940;4.034;2023-08-20T12:41:12;26.70;99.90
52267;DHT22;38223;50.940;4.034;2023-08-20T12:43:43;26.70;99.90
52267;DHT22;38223;50.940;4.034;2023-08-20T12:46:19;27.20;99.90
52267;DHT22;38223;50.940;4.034;2023-08-20T12:48:49;27.40;99.90
52267;DHT22;38223;50.940;4.034;2023-08-20T12:51:21;27.50;99.90
52267;DHT22;38223;50.940;4.034;2023-08-20T12:53:51;27.60;99.90
52267;DHT22;38223;50.940;4.034;2023-08-20T12:56:23;27.30;99.90
52267;DHT22;38223;50.940;4.034;2023-08-20T12:58:59;27.00;99.90
52267;DHT22;38223;50.940;4.034;2023-08-20T13:01:29;26.80;99.90
52267;DHT22;38223;50.940;4.034;2023-08-20T13:04:02;26.90;99.90
52267;DHT22;38223;50.940;4.034;2023-08-20T13:06:32;27.30;99.90
52267;DHT22;38223;50.940;4.034;2023-08-20T13:09:07;27.50;99.90
52267;DHT22;38223;50.940;4.034;2023-08-20T13:11:39;27.90;99.90
52267;DHT22;38223;50.940;4.034;2023-08-20T13:14:12;28.00;99.90
52267;DHT22;38223;50.940;4.034;2023-08-20T13:16:44;28.20;99.90
52267;DHT22;38223;50.940;4.034;2023-08-20T13:19:15;28.10;99.90
52267;DHT22;38223;50.940;4.034;2023-08-20T13:21:45;28.20;99.90
52267;DHT22;38223;50.940;4.034;2023-08-20T13:24:19;28.30;99.90
52267;DHT22;38223;50.940;4.034;2023-08-20T13:26:47;28.30;99.90
52267;DHT22;38223;50.940;4.034;2023-08-20T13:29:21;28.20;99.90
52267;DHT22;38223;50.940;4.034;2023-08-20T13:31:56;28.20;99.90
52267;DHT22;38223;50.940;4.034;2023-08-20T13:34:24;28.10;99.90
52267;DHT22;38223;50.940;4.034;2023-08-20T13:36:57;27.90;99.90
52267;DHT22;38223;50.940;4.034;2023-08-20T13:39:30;27.90;99.90
52267;DHT22;38223;50.940;4.034;2023-08-20T13:42:01;28.10;99.90
52267;DHT22;38223;50.940;4.034;2023-08-20T13:44:33;28.20;99.90
52267;DHT22;38223;50.940;4.034;2023-08-20T13:47:10;28.30;99.90
52267;DHT22;38223;50.940;4.034;2023-08-20T13:49:39;28.10;99.90
52267;DHT22;38223;50.940;4.034;2023-08-20T13:52:11;28.20;99.90
52267;DHT22;38223;50.940;4.034;2023-08-20T13:54:40;28.40;99.90
52267;DHT22;38223;50.940;4.034;2023-08-20T13:57:13;28.60;99.90
52267;DHT22;38223;50.940;4.034;2023-08-20T13:59:42;28.60;99.90
52267;DHT22;38223;50.940;4.034;2023-08-20T14:02:14;28.60;99.90
52267;DHT22;38223;50.940;4.034;2023-08-20T14:04:48;28.60;99.90
52267;DHT22;38223;50.940;4.034;2023-08-20T14:07:15;28.70;99.90
52267;DHT22;38223;50.940;4.034;2023-08-20T14:09:50;28.60;99.90
52267;DHT22;38223;50.940;4.034;2023-08-20T14:12:19;28.70;99.90
52267;DHT22;38223;50.940;4.034;2023-08-20T14:14:52;28.50;99.90
52267;DHT22;38223;50.940;4.034;2023-08-20T14:17:20;28.10;99.90
52267;DHT22;38223;50.940;4.034;2023-08-20T14:19:54;27.70;99.90
52267;DHT22;38223;50.940;4.034;2023-08-20T14:22:23;27.50;99.90
52267;DHT22;38223;50.940;4.034;2023-08-20T14:24:57;27.60;99.90
52267;DHT22;38223;50.940;4.034;2023-08-20T14:27:26;27.50;99.90
52267;DHT22;38223;50.940;4.034;2023-08-20T14:29:59;27.40;99.90
52267;DHT22;38223;50.940;4.034;2023-08-20T14:32:28;27.30;99.90
52267;DHT22;38223;50.940;4.034;2023-08-20T14:35:02;27.20;99.90
52267;DHT22;38223;50.940;4.034;2023-08-20T14:37:31;27.20;99.90
52267;DHT22;38223;50.940;4.034;2023-08-20T14:40:05;27.30;99.90
52267;DHT22;38223;50.940;4.034;2023-08-20T14:42:34;27.10;99.90
52267;DHT22;38223;50.940;4.034;2023-08-20T14:45:05;27.00;99.90
52267;DHT22;38223;50.940;4.034;2023-08-20T14:47:38;27.10;99.90
52267;DHT22;38223;50.940;4.034;2023-08-20T14:50:11;27.40;99.90
52267;DHT22;38223;50.940;4.034;2023-08-20T14:52:41;27.70;99.90
52267;DHT22;38223;50.940;4.034;2023-08-20T14:55:13;28.00;99.90
52267;DHT22;38223;50.940;4.034;2023-08-20T14:57:49;28.20;99.90
52267;DHT22;38223;50.940;4.034;2023-08-20T15:00:23;28.40;99.90
52267;DHT22;38223;50.940;4.034;2023-08-20T15:02:54;28.50;99.90
52267;DHT22;38223;50.940;4.034;2023-08-20T15:05:27;28.20;99.90
52267;DHT22;38223;50.940;4.034;2023-08-20T15:07:55;28.50;99.90
52267;DHT22;38223;50.940;4.034;2023-08-20T15:10:27;29.10;99.90
52267;DHT22;38223;50.940;4.034;2023-08-20T15:13:01;29.70;99.90
52267;DHT22;38223;50.940;4.034;2023-08-20T15:15:35;30.30;99.90
52267;DHT22;38223;50.940;4.034;2023-08-20T15:18:07;31.00;99.40
52267;DHT22;38223;50.940;4.034;2023-08-20T15:20:41;31.40;97.70
52267;DHT22;38223;50.940;4.034;2023-08-20T15:23:10;32.00;96.60
52267;DHT22;38223;50.940;4.034;2023-08-20T15:25:39;32.50;95.30
52267;DHT22;38223;50.940;4.034;2023-08-20T15:28:14;32.80;94.30
52267;DHT22;38223;50.940;4.034;2023-08-20T15:30:45;33.20;93.60
52267;DHT22;38223;50.940;4.034;2023-08-20T15:33:19;32.80;93.00
52267;DHT22;38223;50.940;4.034;2023-08-20T15:35:48;33.30;92.70
52267;DHT22;38223;50.940;4.034;2023-08-20T15:38:20;33.80;91.40
52267;DHT22;38223;50.940;4.034;2023-08-20T15:40:53;34.00;91.40
52267;DHT22;38223;50.940;4.034;2023-08-20T15:43:22;34.00;92.30
52267;DHT22;38223;50.940;4.034;2023-08-20T15:46:00;33.70;92.20
52267;DHT22;38223;50.940;4.034;2023-08-20T15:48:32;33.30;92.50
52267;DHT22;38223;50.940;4.034;2023-08-20T15:51:04;33.10;92.60
52267;DHT22;38223;50.940;4.034;2023-08-20T15:53:39;32.70;93.40
52267;DHT22;38223;50.940;4.034;2023-08-20T15:56:09;32.40;93.90
52267;DHT22;38223;50.940;4.034;2023-08-20T15:58:38;31.30;95.10
52267;DHT22;38223;50.940;4.034;2023-08-20T16:01:10;30.20;96.90
52267;DHT22;38223;50.940;4.034;2023-08-20T16:03:42;29.60;98.40
52267;DHT22;38223;50.940;4.034;2023-08-20T16:06:15;29.00;99.90
52267;DHT22;38223;50.940;4.034;2023-08-20T16:08:50;28.40;99.90
52267;DHT22;38223;50.940;4.034;2023-08-20T16:11:19;27.70;99.90